createdAt,value
2022-10-31T00:01:39.496Z,13.50
2022-10-31T00:04:07.573Z,15.32
2022-10-31T00:06:35.323Z,14.15
2022-10-31T00:09:05.067Z,15.93
2022-10-31T00:11:34.948Z,12.77
2022-10-31T00:14:07.009Z,13.00
2022-10-31T00:16:45.077Z,16.27
2022-10-31T00:19:12.959Z,15.02
2022-10-31T00:21:40.935Z,17.67
2022-10-31T00:24:09.018Z,13.82
2022-10-31T00:26:36.773Z,15.80
2022-10-31T00:29:07.329Z,13.85
2022-10-31T00:31:35.063Z,16.17
2022-10-31T00:34:04.074Z,17.17
2022-10-31T00:36:31.924Z,16.05
2022-10-31T00:38:59.927Z,15.52
2022-10-31T00:41:27.692Z,14.32
2022-10-31T00:43:56.799Z,15.77
2022-10-31T00:46:24.521Z,14.88
2022-10-31T00:48:52.239Z,15.25
2022-10-31T00:51:19.994Z,15.98
2022-10-31T00:53:47.721Z,15.23
2022-10-31T00:56:15.691Z,13.40
2022-10-31T00:58:43.736Z,12.57
2022-10-31T01:01:11.538Z,13.25
2022-10-31T01:03:40.974Z,12.95
2022-10-31T01:06:14.060Z,11.73
2022-10-31T01:08:41.994Z,14.65
2022-10-31T01:11:24.431Z,13.40
2022-10-31T01:13:54.163Z,14.55
2022-10-31T01:16:24.685Z,14.18
2022-10-31T01:18:57.579Z,13.43
2022-10-31T01:21:29.609Z,11.05
2022-10-31T01:24:03.281Z,11.77
2022-10-31T01:26:33.113Z,15.43
2022-10-31T01:29:04.678Z,15.15
2022-10-31T01:31:38.748Z,11.85
2022-10-31T01:34:07.928Z,13.10
2022-10-31T01:36:38.848Z,14.32
2022-10-31T01:39:09.828Z,12.23
2022-10-31T01:41:44.628Z,13.93
2022-10-31T01:44:15.310Z,10.27
2022-10-31T01:47:00.488Z,12.43
2022-10-31T07:36:49.520Z,28.13
2022-10-31T07:40:19.848Z,23.73
2022-10-31T07:58:08.256Z,27.48
2022-10-31T08:03:00.025Z,28.50
2022-10-31T08:12:02.994Z,21.50
2022-10-31T08:14:35.425Z,21.05
2022-10-31T08:17:07.561Z,23.90
2022-10-31T08:19:55.643Z,23.77
2022-10-31T08:23:13.218Z,20.58
2022-10-31T08:25:51.287Z,19.42
2022-10-31T08:31:42.591Z,22.90
2022-10-31T08:34:38.230Z,25.25
2022-10-31T08:37:24.146Z,26.73
2022-10-31T08:39:55.010Z,23.33
2022-10-31T08:42:23.261Z,20.08
2022-10-31T08:44:51.152Z,21.83
2022-10-31T08:47:22.072Z,23.20
2022-10-31T08:49:49.658Z,24.27
2022-10-31T08:52:17.219Z,22.88
2022-10-31T08:54:47.807Z,24.38
2022-10-31T08:57:34.126Z,18.65
2022-10-31T09:00:01.801Z,20.77
2022-10-31T09:02:47.917Z,20.27
2022-10-31T09:05:15.578Z,21.58
2022-10-31T09:07:43.268Z,19.65
2022-10-31T09:10:10.761Z,21.90
2022-10-31T09:12:39.327Z,22.85
2022-10-31T09:15:29.914Z,23.50
2022-10-31T09:18:11.929Z,21.27
2022-10-31T09:20:48.141Z,20.15
2022-10-31T09:23:23.787Z,22.25
2022-10-31T09:25:52.784Z,22.10
2022-10-31T09:28:38.516Z,20.55
2022-10-31T09:31:16.670Z,24.27
2022-10-31T09:34:02.630Z,24.48
2022-10-31T09:36:54.037Z,20.75
2022-10-31T09:39:25.085Z,27.67
2022-10-31T09:42:07.070Z,24.45
2022-10-31T09:44:45.317Z,22.92
2022-10-31T09:47:35.536Z,27.15
2022-10-31T09:50:34.012Z,21.77
2022-10-31T09:53:29.256Z,23.83
2022-10-31T09:55:58.349Z,27.85
2022-10-31T09:58:29.450Z,28.33
2022-10-31T10:01:01.610Z,27.50
2022-10-31T10:03:47.255Z,27.20
2022-10-31T10:06:40.429Z,32.53
2022-10-31T10:09:37.555Z,28.42
2022-10-31T10:12:43.333Z,27.83
2022-10-31T10:15:19.813Z,28.45
2022-10-31T10:18:01.860Z,34.55
2022-10-31T10:20:29.412Z,33.22
2022-10-31T10:23:42.173Z,29.65
2022-10-31T10:26:21.630Z,34.05
2022-10-31T10:29:31.395Z,29.65
2022-10-31T10:32:31.337Z,30.67
2022-10-31T10:39:56.921Z,31.67
2022-10-31T10:43:04.745Z,33.42
2022-10-31T10:49:53.384Z,31.25
2022-10-31T10:52:44.599Z,32.70
2022-10-31T10:55:38.337Z,31.08
2022-10-31T10:58:09.211Z,32.97
2022-10-31T11:01:12.667Z,32.22
2022-10-31T11:03:43.731Z,30.42
2022-10-31T11:06:27.663Z,30.88
2022-10-31T11:08:55.428Z,26.27
2022-10-31T11:11:32.001Z,31.75
2022-10-31T11:14:06.454Z,30.75
2022-10-31T11:16:41.243Z,32.92
2022-10-31T11:19:41.968Z,28.05
2022-10-31T11:22:17.493Z,31.20
2022-10-31T11:24:45.292Z,34.30
2022-10-31T11:27:16.975Z,29.92
2022-10-31T11:29:45.710Z,33.03
2022-10-31T11:32:27.134Z,28.05
2022-10-31T11:35:00.586Z,30.92
2022-10-31T11:37:30.952Z,31.45
2022-10-31T11:40:01.442Z,29.35
2022-10-31T11:42:36.049Z,29.00
2022-10-31T11:45:15.328Z,29.48
2022-10-31T11:47:47.652Z,30.30
2022-10-31T11:50:39.681Z,26.52
2022-10-31T11:53:17.485Z,27.38
2022-10-31T11:56:21.199Z,33.67
2022-10-31T11:59:18.389Z,27.15
2022-10-31T12:01:51.493Z,26.00
2022-10-31T12:04:22.259Z,28.60
2022-10-31T12:06:51.966Z,26.92
2022-10-31T12:13:29.923Z,26.60
2022-10-31T12:16:06.587Z,30.17
2022-10-31T12:18:43.636Z,30.88
2022-10-31T12:21:42.241Z,28.23
2022-10-31T12:24:32.943Z,26.08
2022-10-31T12:27:09.471Z,25.17
2022-10-31T12:30:11.167Z,30.10
2022-10-31T12:32:55.869Z,27.02
2022-10-31T12:35:41.181Z,26.90
2022-10-31T12:38:31.531Z,27.02
2022-10-31T12:41:15.927Z,29.67
2022-10-31T12:43:49.787Z,27.98
2022-10-31T12:46:46.318Z,24.00
2022-10-31T12:49:54.405Z,22.80
2022-10-31T12:52:50.486Z,26.20
2022-10-31T12:55:39.039Z,24.90
2022-10-31T12:58:25.514Z,21.63
2022-10-31T13:01:10.929Z,21.17
2022-10-31T13:06:22.242Z,28.23
2022-10-31T13:11:31.786Z,23.40
2022-10-31T13:14:16.160Z,25.02
2022-10-31T13:16:51.129Z,22.05
2022-10-31T13:19:36.310Z,22.95
2022-10-31T13:22:12.622Z,22.38
2022-10-31T13:24:53.262Z,26.17
2022-10-31T13:27:37.240Z,23.98
2022-10-31T13:30:07.452Z,23.00
2022-10-31T13:32:44.676Z,25.75
2022-10-31T13:35:20.438Z,23.45
2022-10-31T13:38:15.753Z,24.20
2022-10-31T13:41:16.426Z,30.25
2022-10-31T13:44:05.358Z,22.15
2022-10-31T13:46:32.854Z,28.67
2022-10-31T13:49:00.981Z,21.92
2022-10-31T13:51:46.280Z,23.15
2022-10-31T13:54:32.606Z,24.65
2022-10-31T13:57:00.837Z,25.67
2022-10-31T13:59:30.381Z,23.23
2022-10-31T14:02:02.027Z,22.38
2022-10-31T14:04:46.269Z,22.33
2022-10-31T14:07:22.016Z,26.27
2022-10-31T14:09:56.700Z,25.02
2022-10-31T14:12:44.154Z,23.70
2022-10-31T14:15:21.244Z,25.10
2022-10-31T14:17:52.606Z,20.67
2022-10-31T14:20:20.668Z,20.25
2022-10-31T14:22:48.282Z,24.00
2022-10-31T14:25:34.333Z,22.05
2022-10-31T14:28:18.542Z,20.85
2022-10-31T14:30:54.464Z,20.95
2022-10-31T14:33:25.354Z,23.52
2022-10-31T14:36:01.782Z,22.75
2022-10-31T14:38:37.220Z,22.50
2022-10-31T14:41:33.330Z,22.02
2022-10-31T14:44:22.599Z,27.10
2022-10-31T14:47:32.596Z,19.52
2022-10-31T14:50:39.435Z,22.98
2022-10-31T14:53:14.853Z,23.63
2022-10-31T14:55:49.629Z,21.70
2022-10-31T14:58:40.521Z,24.73
2022-10-31T15:01:08.845Z,19.05
2022-10-31T15:03:44.758Z,24.45
2022-10-31T15:06:26.669Z,21.52
2022-10-31T15:08:58.264Z,20.10
2022-10-31T15:11:27.722Z,21.42
2022-10-31T15:13:57.655Z,22.83
2022-10-31T15:19:03.685Z,24.42
2022-10-31T15:21:32.480Z,20.98
2022-10-31T15:24:02.790Z,24.55
2022-10-31T15:26:38.889Z,21.10
2022-10-31T15:29:15.785Z,22.52
2022-10-31T15:32:16.811Z,20.90
2022-10-31T15:34:45.224Z,19.35
2022-10-31T15:37:15.769Z,19.88
2022-10-31T15:39:44.699Z,23.33
2022-10-31T15:42:33.949Z,27.13
2022-10-31T15:45:06.393Z,21.27
2022-10-31T15:47:34.652Z,25.67
2022-10-31T15:50:04.252Z,23.55
2022-10-31T15:52:48.012Z,24.90
2022-10-31T15:55:24.296Z,20.35
2022-10-31T15:58:05.847Z,29.52
2022-10-31T16:00:36.242Z,28.77
2022-10-31T16:03:06.145Z,25.45
2022-10-31T16:06:00.624Z,23.38
2022-10-31T16:08:30.940Z,23.38
2022-10-31T16:11:07.297Z,24.92
2022-10-31T16:13:39.096Z,22.83
2022-10-31T16:16:45.888Z,24.23
2022-10-31T16:19:06.225Z,25.80
2022-10-31T16:21:39.405Z,30.98
2022-10-31T16:24:31.937Z,23.65
2022-10-31T16:27:08.431Z,23.45
2022-10-31T16:29:47.305Z,24.75
2022-10-31T16:32:37.726Z,32.53
2022-10-31T16:35:11.079Z,23.50
2022-10-31T16:37:42.251Z,31.52
2022-10-31T16:40:14.974Z,26.13
2022-10-31T16:42:44.332Z,23.98
2022-10-31T16:45:19.623Z,28.20
2022-10-31T16:47:47.925Z,24.95
2022-10-31T16:50:24.504Z,26.45
2022-10-31T16:53:13.727Z,29.33
2022-10-31T16:55:47.610Z,24.67
2022-10-31T16:58:24.191Z,28.58
2022-10-31T17:00:53.525Z,28.15
2022-10-31T17:03:21.341Z,25.58
2022-10-31T17:05:49.054Z,22.60
2022-10-31T17:08:16.752Z,29.88
2022-10-31T17:10:46.182Z,30.15
2022-10-31T17:13:39.837Z,27.83
2022-10-31T17:16:07.659Z,25.38
2022-10-31T17:18:35.490Z,23.33
2022-10-31T17:21:06.247Z,27.15
2022-10-31T17:23:33.825Z,30.23
2022-10-31T17:26:01.366Z,29.27
2022-10-31T17:28:28.947Z,34.03
2022-10-31T17:30:59.213Z,31.10
2022-10-31T17:33:27.015Z,33.28
2022-10-31T17:35:56.824Z,34.75
2022-10-31T17:38:24.646Z,31.17
2022-10-31T17:40:52.187Z,29.67
2022-10-31T17:43:19.839Z,34.17
2022-10-31T17:45:47.394Z,38.47
2022-10-31T17:48:15.009Z,35.58
2022-10-31T17:50:42.771Z,33.88
2022-10-31T17:53:10.183Z,40.10
2022-10-31T17:55:37.896Z,36.53
2022-10-31T17:58:05.903Z,32.40
2022-10-31T18:00:33.826Z,27.50
2022-10-31T18:03:03.892Z,36.53
2022-10-31T18:05:32.243Z,36.22
2022-10-31T18:08:03.695Z,27.42
2022-10-31T18:10:32.202Z,32.97
2022-10-31T18:13:03.023Z,34.65
2022-10-31T18:15:30.862Z,31.85
2022-10-31T18:17:58.517Z,38.05
2022-10-31T18:20:26.305Z,30.60
2022-10-31T18:22:56.641Z,31.73
2022-10-31T18:25:24.251Z,31.05
2022-10-31T18:27:51.895Z,32.03
2022-10-31T18:30:19.716Z,32.03
2022-10-31T18:32:51.303Z,33.33
2022-10-31T18:35:19.050Z,34.80
2022-10-31T18:37:46.715Z,32.15
2022-10-31T18:40:36.156Z,32.15
2022-10-31T18:43:08.238Z,42.35
2022-10-31T18:45:53.709Z,30.48
2022-10-31T18:48:37.005Z,33.58
2022-10-31T18:51:21.338Z,30.00
2022-10-31T18:53:54.100Z,27.90
2022-10-31T18:56:22.473Z,35.00
2022-10-31T18:58:50.904Z,33.55
2022-10-31T19:01:20.310Z,29.88
2022-10-31T19:03:54.241Z,34.88
2022-10-31T19:06:22.896Z,31.42
2022-10-31T19:09:01.256Z,30.23
2022-10-31T19:11:44.353Z,29.58
2022-10-31T19:14:14.822Z,31.65
2022-10-31T19:16:42.645Z,29.00
2022-10-31T19:19:11.937Z,34.10
2022-10-31T19:21:39.460Z,28.25
2022-10-31T19:24:07.218Z,30.65
2022-10-31T19:26:35.106Z,29.42
2022-10-31T19:29:02.680Z,33.22
2022-10-31T19:31:34.521Z,31.00
2022-10-31T19:34:04.715Z,35.97
2022-10-31T19:36:32.535Z,32.17
2022-10-31T19:39:02.587Z,29.10
2022-10-31T19:41:45.080Z,29.80
2022-10-31T19:44:15.121Z,32.63
2022-10-31T19:46:53.250Z,32.75
2022-10-31T19:52:10.160Z,36.17
2022-10-31T19:54:37.799Z,32.15
2022-10-31T19:57:05.447Z,30.83
2022-10-31T19:59:38.270Z,32.80
2022-10-31T20:02:19.714Z,31.63
2022-10-31T20:04:49.749Z,28.88
2022-10-31T20:07:17.393Z,32.42
2022-10-31T20:09:46.372Z,35.15
2022-10-31T20:12:14.049Z,32.88
2022-10-31T20:14:43.145Z,29.02
2022-10-31T20:17:10.836Z,29.88
2022-10-31T20:19:38.677Z,34.25
2022-10-31T20:22:20.151Z,33.85
2022-10-31T20:24:47.788Z,38.78
2022-10-31T20:27:17.971Z,31.92
2022-10-31T20:29:54.710Z,34.70
2022-10-31T20:32:22.428Z,36.53
2022-10-31T20:34:50.632Z,31.55
2022-10-31T20:37:18.288Z,34.67
2022-10-31T20:39:46.108Z,34.38
2022-10-31T20:42:24.852Z,32.75
2022-10-31T20:44:52.433Z,31.77
2022-10-31T20:47:23.322Z,36.35
2022-10-31T20:49:52.585Z,31.92
2022-10-31T20:52:20.017Z,29.83
2022-10-31T20:54:47.488Z,34.35
2022-10-31T20:58:03.039Z,31.73
2022-10-31T21:00:51.557Z,31.20
2022-10-31T21:03:19.873Z,29.67
2022-10-31T21:06:02.174Z,34.42
2022-10-31T21:08:32.900Z,34.15
2022-10-31T21:11:01.288Z,31.80
2022-10-31T21:13:29.490Z,33.20
2022-10-31T21:16:04.973Z,33.20
2022-10-31T21:18:35.074Z,36.70
2022-10-31T21:21:12.132Z,30.90
2022-10-31T21:27:27.434Z,28.75
2022-10-31T21:30:18.454Z,31.90
2022-10-31T21:32:58.915Z,32.08
2022-10-31T21:35:48.090Z,31.10
2022-10-31T21:39:35.674Z,34.40
2022-10-31T21:42:23.741Z,30.02
2022-10-31T21:44:57.812Z,33.72
2022-10-31T21:47:44.583Z,29.52
2022-10-31T21:50:15.016Z,32.10
2022-10-31T21:52:43.223Z,31.70
2022-10-31T21:55:15.704Z,29.48
2022-10-31T21:58:05.400Z,31.42
2022-10-31T22:04:44.269Z,30.13
2022-10-31T22:07:21.764Z,27.23
2022-10-31T22:10:27.492Z,32.35
2022-10-31T22:13:02.783Z,32.72
2022-10-31T22:15:34.962Z,30.25
2022-10-31T22:18:06.404Z,30.90
2022-10-31T22:20:45.186Z,32.08
2022-10-31T22:23:17.635Z,31.80
2022-10-31T22:25:45.195Z,30.75
2022-10-31T22:28:15.322Z,30.52
2022-10-31T22:30:51.616Z,28.85
2022-10-31T22:33:26.916Z,34.33
2022-10-31T22:35:58.237Z,29.63
2022-10-31T22:38:29.429Z,34.88
2022-10-31T22:41:02.925Z,30.67
2022-10-31T22:43:30.651Z,35.58
2022-10-31T22:46:04.903Z,28.38
2022-10-31T22:48:36.544Z,32.55
2022-10-31T22:51:11.296Z,28.30
2022-10-31T22:54:06.010Z,26.20
2022-10-31T22:56:47.476Z,29.02
2022-10-31T22:59:19.652Z,27.38
2022-10-31T23:01:55.157Z,27.58
2022-10-31T23:05:25.750Z,28.55
2022-10-31T23:08:01.829Z,24.55
2022-10-31T23:10:35.806Z,29.45
2022-10-31T23:13:53.363Z,27.55
2022-10-31T23:16:22.404Z,28.42
2022-10-31T23:18:52.465Z,24.70
2022-10-31T23:21:43.005Z,26.67
2022-10-31T23:24:13.877Z,25.75
2022-10-31T23:27:00.372Z,26.02
2022-10-31T23:29:30.383Z,29.60
2022-10-31T23:31:59.495Z,29.45
2022-10-31T23:34:29.578Z,28.67
2022-10-31T23:39:36.235Z,23.40
2022-10-31T23:42:06.343Z,22.58
2022-10-31T23:44:35.391Z,24.05
2022-10-31T23:47:07.901Z,26.80
2022-10-31T23:49:40.381Z,25.08
2022-10-31T23:52:08.749Z,22.25
2022-10-31T23:54:36.492Z,20.92
2022-10-31T23:57:06.632Z,23.42
2022-10-31T23:59:34.386Z,26.42
